Time;durP1;ratioP1;P1;durP2;ratioP2;P2;SDS_P1;SDS_P2;PMS_P1;PMS_P2;Temp;Humidity;BMP_temperature;BMP_pressure;BME280_temperature;BME280_humidity;BME280_pressure;Samples;Min_cycle;Max_cycle;Signal;HPM_P1;HPM_P2
2023/03/02 00:00:14;;;;;;;11.33;2.53;;;28.50;99.90;;;;;;5050451;28;20210;-72
2023/03/02 00:02:43;;;;;;;9.03;2.20;;;29.40;99.90;;;;;;5052165;28;20225;-76
2023/03/02 00:05:13;;;;;;;6.83;2.30;;;30.50;99.90;;;;;;5050755;28;20195;-74
2023/03/02 00:07:41;;;;;;;7.20;2.03;;;30.80;99.90;;;;;;5050255;28;20250;-75
2023/03/02 00:10:09;;;;;;;9.40;2.50;;;30.00;99.90;;;;;;5046849;28;20193;-74
2023/03/02 00:12:37;;;;;;;6.73;2.00;;;28.90;99.90;;;;;;5031894;28;20232;-73
2023/03/02 00:15:05;;;;;;;4.43;2.13;;;28.10;99.90;;;;;;5031523;28;20235;-76
2023/03/02 00:17:33;;;;;;;5.20;2.33;;;27.40;99.90;;;;;;5031537;28;20305;-75
2023/03/02 00:20:10;;;;;;;9.57;2.10;;;26.70;99.90;;;;;;5031749;28;20188;-73
2023/03/02 00:22:43;;;;;;;7.20;2.00;;;26.40;99.90;;;;;;5031404;28;20188;-70
2023/03/02 00:25:12;;;;;;;5.20;1.40;;;26.40;99.90;;;;;;5031778;28;20208;-73
2023/03/02 00:27:40;;;;;;;7.63;2.20;;;26.30;99.90;;;;;;5043108;28;20199;-74
2023/03/02 00:30:09;;;;;;;7.83;2.57;;;26.10;99.90;;;;;;5051294;28;20180;-75
2023/03/02 00:32:37;;;;;;;4.47;1.70;;;25.80;99.90;;;;;;5049675;28;20615;-74
2023/03/02 00:35:06;;;;;;;4.90;1.90;;;25.50;99.90;;;;;;5051020;28;20200;-74
2023/03/02 00:37:36;;;;;;;8.97;1.53;;;25.30;99.90;;;;;;5050595;28;20184;-74
2023/03/02 00:40:08;;;;;;;3.93;1.70;;;25.20;99.90;;;;;;5051529;28;20541;-75
2023/03/02 00:42:39;;;;;;;5.03;1.83;;;25.20;99.90;;;;;;5046109;28;20189;-79
2023/03/02 00:45:07;;;;;;;5.33;1.10;;;25.20;99.90;;;;;;5045307;28;20212;-73
2023/03/02 00:47:36;;;;;;;3.77;1.27;;;25.20;99.90;;;;;;5047591;28;20188;-73
2023/03/02 00:50:05;;;;;;;3.67;1.30;;;25.70;99.90;;;;;;5050685;28;20535;-74
2023/03/02 00:52:35;;;;;;;2.83;1.30;;;26.70;99.90;;;;;;5051125;28;20193;-73
2023/03/02 00:55:03;;;;;;;2.57;1.40;;;28.10;99.90;;;;;;5050908;28;20563;-72
2023/03/02 00:57:30;;;;;;;2.60;1.27;;;28.80;99.90;;;;;;5050854;28;20234;-73
2023/03/02 01:00:07;;;;;;;2.93;1.20;;;28.20;99.90;;;;;;5050193;28;20254;-73
2023/03/02 01:02:37;;;;;;;3.40;1.33;;;27.20;99.90;;;;;;5051384;28;20199;-73
2023/03/02 01:05:05;;;;;;;2.80;1.10;;;27.20;99.90;;;;;;5050675;28;20188;-75
2023/03/02 01:07:33;;;;;;;2.83;1.20;;;28.40;99.90;;;;;;5050335;28;20247;-73
2023/03/02 01:10:01;;;;;;;7.47;1.47;;;29.60;99.90;;;;;;5051397;28;20790;-73
2023/03/02 01:12:29;;;;;;;3.87;1.20;;;29.70;99.90;;;;;;5052550;28;20264;-73
2023/03/02 01:14:57;;;;;;;3.23;1.23;;;30.00;99.90;;;;;;5033603;28;20197;-73
2023/03/02 01:17:25;;;;;;;7.47;1.63;;;30.30;99.90;;;;;;5040564;28;20761;-73
2023/03/02 01:19:53;;;;;;;4.43;1.07;;;30.90;99.90;;;;;;5052409;28;20185;-75
2023/03/02 01:22:21;;;;;;;4.73;1.40;;;31.10;99.90;;;;;;5053509;28;20278;-72
2023/03/02 01:24:50;;;;;;;7.50;1.50;;;31.20;99.90;;;;;;5053604;28;20196;-73
2023/03/02 01:27:18;;;;;;;4.70;1.67;;;31.60;99.90;;;;;;5053828;28;20181;-73
2023/03/02 01:29:46;;;;;;;3.78;1.30;;;31.40;99.90;;;;;;5054435;28;20226;-75
2023/03/02 01:32:14;;;;;;;5.57;1.43;;;31.40;99.90;;;;;;5046256;28;20231;-74
2023/03/02 01:34:42;;;;;;;4.40;1.40;;;31.10;99.90;;;;;;5038424;28;20189;-73
2023/03/02 01:37:09;;;;;;;2.93;1.17;;;31.40;99.90;;;;;;5053381;28;20213;-73
2023/03/02 01:39:40;;;;;;;6.63;1.20;;;31.80;99.90;;;;;;5046743;28;20205;-73
2023/03/02 01:42:08;;;;;;;5.50;1.30;;;31.80;99.90;;;;;;5034777;28;20244;-73
2023/03/02 01:44:45;;;;;;;7.65;1.65;;;31.60;99.90;;;;;;5051723;28;20211;-73
2023/03/02 01:47:18;;;;;;;3.92;1.80;;;32.10;99.90;;;;;;5038857;28;20177;-74
2023/03/02 01:50:00;;;;;;;6.03;1.50;;;32.10;99.90;;;;;;5039970;28;20208;-73
2023/03/02 01:52:32;;;;;;;4.22;1.17;;;32.50;99.90;;;;;;5053870;28;20539;-74
2023/03/02 01:55:03;;;;;;;7.95;1.50;;;32.40;99.90;;;;;;5054183;28;20303;-73
2023/03/02 01:57:42;;;;;;;3.38;1.15;;;32.70;99.90;;;;;;5053481;28;20260;-72
2023/03/02 02:00:15;;;;;;;8.60;1.60;;;32.10;99.90;;;;;;5069037;28;20754;-72
2023/03/02 02:02:43;;;;;;;3.83;1.43;;;31.80;99.90;;;;;;5052915;28;20267;-73
2023/03/02 02:05:15;;;;;;;8.57;1.70;;;31.80;99.90;;;;;;5054288;28;20180;-73
2023/03/02 02:07:43;;;;;;;3.00;1.20;;;31.60;99.90;;;;;;5045940;28;20180;-73
2023/03/02 02:10:11;;;;;;;4.85;0.98;;;31.90;99.90;;;;;;5053895;28;20185;-74
2023/03/02 02:12:39;;;;;;;3.77;1.10;;;31.40;99.90;;;;;;5053828;28;20177;-74
2023/03/02 02:15:07;;;;;;;3.73;1.13;;;31.40;99.90;;;;;;5053484;28;20271;-74
2023/03/02 02:17:35;;;;;;;4.15;1.05;;;31.80;99.90;;;;;;5052748;28;20694;-74
2023/03/02 02:20:18;;;;;;;4.70;1.20;;;32.50;99.90;;;;;;5052652;28;20208;-73
2023/03/02 02:22:56;;;;;;;1.75;0.73;;;31.90;99.90;;;;;;5051728;28;20220;-74
2023/03/02 02:25:54;;;;;;;2.80;0.98;;;31.30;99.90;;;;;;5053928;28;20705;-73
2023/03/02 02:29:02;;;;;;;4.27;1.00;;;30.70;99.90;;;;;;5037620;28;20281;-73
2023/03/02 02:31:38;;;;;;;3.90;0.93;;;30.60;99.90;;;;;;5011817;28;20541;-74
2023/03/02 02:34:23;;;;;;;3.57;1.07;;;31.80;99.90;;;;;;5010319;28;20216;-74
2023/03/02 02:37:16;;;;;;;3.58;1.08;;;32.40;99.90;;;;;;5025291;28;20227;-74
2023/03/02 02:39:48;;;;;;;5.53;0.98;;;32.90;99.90;;;;;;5029654;28;20204;-74
2023/03/02 02:42:39;;;;;;;3.05;0.80;;;32.80;99.90;;;;;;5052413;28;20275;-73
2023/03/02 02:45:19;;;;;;;3.20;1.38;;;32.40;99.90;;;;;;5051785;28;20615;-74
2023/03/02 02:47:48;;;;;;;3.75;1.20;;;32.30;99.90;;;;;;5032056;28;20282;-74
2023/03/02 02:50:26;;;;;;;1.95;1.15;;;32.70;99.90;;;;;;5044316;28;20957;-74
2023/03/02 02:53:18;;;;;;;5.63;1.10;;;32.60;99.90;;;;;;5053148;28;20198;-72
2023/03/02 02:55:50;;;;;;;2.22;0.80;;;33.00;99.90;;;;;;5048803;28;20192;-72
2023/03/02 02:58:35;;;;;;;3.47;1.02;;;33.40;99.90;;;;;;5052726;28;20657;-72
2023/03/02 03:01:03;;;;;;;2.88;0.80;;;33.60;99.90;;;;;;5053185;28;20750;-72
2023/03/02 03:03:38;;;;;;;4.28;0.70;;;33.50;99.90;;;;;;5053018;28;20173;-74
2023/03/02 03:06:17;;;;;;;2.88;0.93;;;33.20;99.90;;;;;;5052700;28;20216;-74
2023/03/02 03:08:44;;;;;;;2.47;0.75;;;33.10;99.90;;;;;;5052658;28;20184;-74
2023/03/02 03:11:15;;;;;;;3.27;0.97;;;33.10;99.90;;;;;;5052709;28;20578;-74
2023/03/02 03:13:45;;;;;;;3.70;0.93;;;33.30;99.90;;;;;;5052088;28;20195;-73
2023/03/02 03:16:18;;;;;;;2.08;0.90;;;33.50;99.90;;;;;;5052738;28;20220;-73
2023/03/02 03:18:49;;;;;;;3.55;0.70;;;33.20;99.90;;;;;;5052859;28;20184;-73
2023/03/02 03:21:17;;;;;;;3.00;1.10;;;33.40;99.90;;;;;;5052192;28;20216;-73
2023/03/02 03:23:45;;;;;;;5.57;1.60;;;33.20;99.90;;;;;;5050122;28;20227;-73
2023/03/02 03:26:13;;;;;;;3.13;1.05;;;32.80;99.90;;;;;;5049910;28;20196;-73
2023/03/02 03:28:41;;;;;;;1.57;0.80;;;32.90;99.90;;;;;;5047363;28;20222;-73
2023/03/02 03:31:09;;;;;;;3.13;0.90;;;32.50;99.90;;;;;;5051101;28;20242;-75
2023/03/02 03:33:36;;;;;;;3.17;0.90;;;32.00;99.90;;;;;;5053062;28;20177;-74
2023/03/02 03:36:05;;;;;;;3.83;1.37;;;32.10;99.90;;;;;;5051020;28;20255;-71
2023/03/02 03:38:33;;;;;;;2.07;1.07;;;32.20;99.90;;;;;;5053524;28;20205;-72
2023/03/02 03:41:01;;;;;;;11.00;1.17;;;32.00;99.90;;;;;;5051127;28;20299;-73
2023/03/02 03:43:29;;;;;;;5.33;1.40;;;32.30;99.90;;;;;;5051656;28;20181;-73
2023/03/02 03:45:56;;;;;;;4.90;0.88;;;32.20;99.90;;;;;;5052248;28;20234;-74
2023/03/02 03:51:53;;;;;;;2.63;1.17;;;32.90;99.90;;;;;;5008916;28;20212;-71
2023/03/02 03:54:21;;;;;;;4.53;1.00;;;33.00;99.90;;;;;;5051080;28;20227;-72
2023/03/02 03:56:50;;;;;;;4.28;1.50;;;33.10;99.90;;;;;;5051819;28;20245;-72
2023/03/02 03:59:21;;;;;;;3.90;1.27;;;33.10;99.90;;;;;;5050959;28;20176;-70
2023/03/02 04:01:57;;;;;;;3.63;1.33;;;33.10;99.90;;;;;;5051991;28;20594;-72
2023/03/02 04:04:32;;;;;;;4.45;1.42;;;33.10;99.90;;;;;;5051513;28;20176;-73
2023/03/02 04:07:00;;;;;;;5.20;1.35;;;33.10;99.90;;;;;;5051207;28;20541;-72
2023/03/02 04:09:36;;;;;;;4.17;1.50;;;32.70;99.90;;;;;;5049748;28;20181;-71
2023/03/02 04:12:05;;;;;;;3.88;1.73;;;32.10;99.90;;;;;;5031263;28;20196;-72
2023/03/02 04:14:33;;;;;;;1.73;0.93;;;31.70;99.90;;;;;;5035165;28;20181;-71
2023/03/02 04:17:04;;;;;;;4.57;1.33;;;31.10;99.90;;;;;;5032175;28;20312;-73
2023/03/02 04:19:34;;;;;;;6.20;1.20;;;31.10;99.90;;;;;;5033021;28;20323;-71
2023/03/02 04:22:02;;;;;;;3.83;1.00;;;31.30;99.90;;;;;;5052767;28;20227;-72
2023/03/02 04:24:30;;;;;;;3.57;1.50;;;31.40;99.90;;;;;;5052095;28;20589;-73
2023/03/02 04:26:58;;;;;;;3.27;1.17;;;31.90;99.90;;;;;;5050957;28;20677;-72
2023/03/02 04:29:26;;;;;;;4.13;1.23;;;31.80;99.90;;;;;;5050968;28;20243;-72
2023/03/02 04:31:54;;;;;;;3.90;1.00;;;31.60;99.90;;;;;;5051560;28;20638;-72
2023/03/02 04:34:24;;;;;;;3.67;1.00;;;31.40;99.90;;;;;;5051172;28;20187;-72
2023/03/02 04:36:52;;;;;;;6.13;1.17;;;31.60;99.90;;;;;;5047125;28;20192;-73
2023/03/02 04:39:21;;;;;;;2.93;0.93;;;31.80;99.90;;;;;;5051124;28;20238;-72
2023/03/02 04:41:49;;;;;;;3.80;1.03;;;32.00;99.90;;;;;;5031027;28;20231;-71
2023/03/02 04:44:18;;;;;;;6.97;3.10;;;32.10;99.90;;;;;;5031623;28;20173;-71
2023/03/02 04:46:47;;;;;;;12.20;7.18;;;32.30;99.90;;;;;;5035019;28;20196;-71
2023/03/02 04:52:37;;;;;;;10.03;6.97;;;32.50;99.90;;;;;;5054753;28;20191;-72
2023/03/02 04:55:05;;;;;;;9.93;5.57;;;31.70;99.90;;;;;;5043151;28;20192;-73
2023/03/02 04:57:35;;;;;;;7.67;4.77;;;31.10;99.90;;;;;;5054204;28;20230;-71
2023/03/02 05:00:08;;;;;;;6.78;3.70;;;31.00;99.90;;;;;;5054381;28;20215;-71
2023/03/02 05:02:36;;;;;;;5.63;2.57;;;31.50;99.90;;;;;;5054465;28;20676;-71
2023/03/02 05:05:04;;;;;;;9.80;2.30;;;31.30;99.90;;;;;;5054808;28;20259;-72
2023/03/02 05:07:32;;;;;;;6.00;1.90;;;31.10;99.90;;;;;;5035426;28;20242;-71
2023/03/02 05:10:00;;;;;;;4.80;1.73;;;31.20;99.90;;;;;;5045309;28;20185;-71
2023/03/02 05:12:28;;;;;;;3.03;1.30;;;31.10;99.90;;;;;;5054802;28;20176;-71
2023/03/02 05:14:55;;;;;;;3.23;1.33;;;30.40;99.90;;;;;;5055353;28;20180;-72
2023/03/02 05:17:23;;;;;;;3.97;1.53;;;29.90;99.90;;;;;;5048497;28;20232;-71
2023/03/02 05:19:51;;;;;;;2.83;1.40;;;29.50;99.90;;;;;;5054541;28;20180;-71
2023/03/02 05:22:19;;;;;;;3.47;1.20;;;29.10;99.90;;;;;;5054738;28;20209;-70
2023/03/02 05:24:47;;;;;;;3.23;1.00;;;29.20;99.90;;;;;;5053903;28;20168;-70
2023/03/02 05:27:15;;;;;;;3.20;1.00;;;29.50;99.90;;;;;;5053920;28;20181;-71
2023/03/02 05:29:42;;;;;;;3.13;1.10;;;29.70;99.90;;;;;;5052939;28;20246;-70
2023/03/02 05:32:11;;;;;;;2.10;1.23;;;30.10;99.90;;;;;;5053954;28;20173;-70
2023/03/02 05:34:39;;;;;;;4.67;1.40;;;30.70;99.90;;;;;;5053631;28;20178;-71
2023/03/02 05:37:07;;;;;;;4.13;0.93;;;30.80;99.90;;;;;;5054452;28;20176;-71
2023/03/02 05:39:34;;;;;;;4.27;1.03;;;30.70;99.90;;;;;;5054306;28;20180;-71
2023/03/02 05:42:02;;;;;;;1.90;1.20;;;30.50;99.90;;;;;;5053729;28;20220;-72
2023/03/02 05:44:30;;;;;;;2.87;1.00;;;30.40;99.90;;;;;;5054173;28;20641;-72
2023/03/02 05:46:58;;;;;;;2.50;0.90;;;30.50;99.90;;;;;;5053963;28;20195;-72
2023/03/02 05:49:26;;;;;;;2.33;0.90;;;30.20;99.90;;;;;;5053544;28;20627;-71
2023/03/02 05:51:54;;;;;;;2.57;1.10;;;29.80;99.90;;;;;;5053830;28;20187;-71
2023/03/02 05:54:21;;;;;;;1.63;0.70;;;29.90;99.90;;;;;;5053679;28;20674;-71
2023/03/02 05:56:49;;;;;;;3.63;1.00;;;29.80;99.90;;;;;;5052459;28;20267;-72
2023/03/02 05:59:17;;;;;;;2.43;1.00;;;29.70;99.90;;;;;;5053786;28;20176;-72
2023/03/02 06:01:46;;;;;;;2.67;1.00;;;29.30;99.90;;;;;;5053374;28;20299;-72
2023/03/02 06:04:14;;;;;;;2.57;0.80;;;29.20;99.90;;;;;;5053180;28;20185;-72
2023/03/02 06:06:42;;;;;;;2.37;0.70;;;29.10;99.90;;;;;;5069110;28;20188;-70
2023/03/02 06:09:10;;;;;;;2.73;1.00;;;29.10;99.90;;;;;;5053379;28;20165;-71
2023/03/02 06:11:37;;;;;;;4.00;0.90;;;28.80;99.90;;;;;;5053115;28;20184;-72
2023/03/02 06:14:05;;;;;;;5.70;1.10;;;28.70;99.90;;;;;;5053128;28;20180;-70
2023/03/02 06:16:34;;;;;;;2.40;1.17;;;28.70;99.90;;;;;;5053360;28;20247;-71
2023/03/02 06:19:02;;;;;;;4.10;1.13;;;28.60;99.90;;;;;;5052641;28;20227;-72
2023/03/02 06:21:30;;;;;;;1.60;0.80;;;28.70;99.90;;;;;;5052886;28;20224;-71
2023/03/02 06:23:58;;;;;;;4.43;0.70;;;28.60;99.90;;;;;;5052827;28;20266;-71
2023/03/02 06:26:26;;;;;;;4.23;1.27;;;28.80;99.90;;;;;;5052888;28;20287;-71
2023/03/02 06:28:53;;;;;;;3.63;0.87;;;29.00;99.90;;;;;;5053101;28;20180;-71
2023/03/02 06:31:22;;;;;;;4.07;1.10;;;28.90;99.90;;;;;;5050885;28;20568;-72
2023/03/02 06:33:50;;;;;;;3.83;0.90;;;28.80;99.90;;;;;;5052827;28;20231;-71
2023/03/02 06:36:18;;;;;;;9.20;1.20;;;28.60;99.90;;;;;;5050558;28;20187;-72
2023/03/02 06:38:49;;;;;;;3.50;0.90;;;28.60;99.90;;;;;;5051867;28;20183;-72
2023/03/02 06:41:17;;;;;;;5.33;1.37;;;28.70;99.90;;;;;;5051119;28;20256;-71
2023/03/02 06:43:45;;;;;;;4.13;1.00;;;28.30;99.90;;;;;;5048906;28;20200;-72
2023/03/02 06:46:13;;;;;;;2.47;0.80;;;28.30;99.90;;;;;;5052013;28;20666;-71
2023/03/02 06:48:40;;;;;;;3.23;0.80;;;28.10;99.90;;;;;;5050945;28;20188;-72
2023/03/02 06:51:09;;;;;;;5.97;1.30;;;28.30;99.90;;;;;;5052781;28;20212;-72
2023/03/02 06:53:36;;;;;;;3.93;1.10;;;28.20;99.90;;;;;;5051310;28;20556;-72
2023/03/02 06:56:05;;;;;;;3.63;1.20;;;28.30;99.90;;;;;;5050776;28;20593;-72
2023/03/02 06:58:33;;;;;;;5.03;1.00;;;28.20;99.90;;;;;;5052517;28;20590;-72
2023/03/02 07:01:00;;;;;;;2.10;1.20;;;28.30;99.90;;;;;;5050935;28;20208;-72
2023/03/02 07:03:28;;;;;;;4.90;0.90;;;28.20;99.90;;;;;;5050996;28;20192;-72
2023/03/02 07:05:56;;;;;;;1.33;0.73;;;28.00;99.90;;;;;;5043675;28;20255;-72
2023/03/02 07:08:24;;;;;;;6.10;1.30;;;28.00;99.90;;;;;;5052482;28;20172;-72
2023/03/02 07:10:55;;;;;;;1.80;0.87;;;28.10;99.90;;;;;;5052274;28;20263;-72
2023/03/02 07:13:23;;;;;;;3.13;1.00;;;28.40;99.90;;;;;;5052145;28;20196;-72
2023/03/02 07:15:51;;;;;;;1.17;0.70;;;28.30;99.90;;;;;;5051697;28;20307;-73
2023/03/02 07:18:18;;;;;;;3.50;1.67;;;28.10;99.90;;;;;;5029070;28;20655;-73
2023/03/02 07:20:46;;;;;;;4.27;0.87;;;27.90;99.90;;;;;;5012614;28;20218;-72
2023/03/02 07:23:14;;;;;;;3.73;0.90;;;27.60;99.90;;;;;;5012548;28;20181;-72
2023/03/02 07:25:45;;;;;;;3.13;1.27;;;27.50;99.90;;;;;;5020462;28;20193;-72
2023/03/02 07:28:13;;;;;;;3.60;1.00;;;27.30;99.90;;;;;;5032473;28;20185;-72
2023/03/02 07:30:40;;;;;;;2.50;0.97;;;27.20;99.90;;;;;;5031550;28;20189;-72
2023/03/02 07:33:11;;;;;;;4.70;0.90;;;27.00;99.90;;;;;;5031689;28;20185;-71
2023/03/02 07:35:39;;;;;;;3.10;1.00;;;27.00;99.90;;;;;;5031284;28;20186;-72
2023/03/02 07:38:17;;;;;;;2.33;0.93;;;26.90;99.90;;;;;;5031718;28;20181;-72
2023/03/02 07:40:45;;;;;;;2.33;0.80;;;26.90;99.90;;;;;;5030758;28;20227;-72
2023/03/02 07:43:13;;;;;;;1.90;1.13;;;26.90;99.90;;;;;;5031671;28;20275;-73
2023/03/02 07:45:50;;;;;;;4.33;1.10;;;26.80;99.90;;;;;;5029785;28;20189;-72
2023/03/02 07:48:18;;;;;;;2.60;0.87;;;26.70;99.90;;;;;;5030716;28;20181;-71
2023/03/02 07:50:46;;;;;;;4.40;0.87;;;26.50;99.90;;;;;;5025217;28;20682;-72
2023/03/02 07:53:14;;;;;;;4.70;0.90;;;26.50;99.90;;;;;;5010703;28;20190;-72
2023/03/02 07:55:42;;;;;;;3.83;1.10;;;26.40;99.90;;;;;;5012336;28;20243;-72
2023/03/02 07:58:13;;;;;;;2.23;0.87;;;26.40;99.90;;;;;;5017441;28;20207;-72
2023/03/02 08:00:41;;;;;;;3.43;0.90;;;26.30;99.90;;;;;;5032023;28;20922;-72
2023/03/02 08:06:34;;;;;;;2.80;1.20;;;25.90;99.90;;;;;;5031093;28;20301;-72
2023/03/02 08:09:05;;;;;;;4.97;1.10;;;25.70;99.90;;;;;;5030605;28;20268;-71
2023/03/02 08:11:33;;;;;;;2.73;0.90;;;25.70;99.90;;;;;;5031137;28;20665;-72
2023/03/02 08:14:08;;;;;;;2.20;0.90;;;25.50;99.90;;;;;;5026154;28;20240;-72
2023/03/02 08:16:35;;;;;;;2.10;0.70;;;25.40;99.90;;;;;;5017132;28;20311;-72
2023/03/02 08:19:03;;;;;;;5.00;1.00;;;25.30;99.90;;;;;;5039558;28;20211;-72
2023/03/02 08:21:32;;;;;;;2.90;0.90;;;25.20;99.90;;;;;;5050556;28;20216;-71
2023/03/02 08:24:04;;;;;;;1.33;0.87;;;25.10;99.90;;;;;;5051324;28;20238;-72
2023/03/02 08:26:34;;;;;;;7.10;1.13;;;25.00;99.90;;;;;;5050928;28;20548;-72
2023/03/02 08:29:06;;;;;;;2.50;0.90;;;24.90;99.90;;;;;;5041779;28;20288;-71
2023/03/02 08:31:34;;;;;;;4.83;1.30;;;24.80;99.90;;;;;;5048330;28;20196;-71
2023/03/02 08:34:01;;;;;;;4.17;1.40;;;24.80;99.90;;;;;;5049885;28;20192;-71
2023/03/02 08:36:29;;;;;;;1.67;1.03;;;24.80;99.90;;;;;;5051388;28;20187;-71
2023/03/02 08:38:57;;;;;;;1.37;0.93;;;24.70;99.90;;;;;;5050732;28;20241;-72
2023/03/02 08:41:25;;;;;;;1.63;1.10;;;24.60;99.90;;;;;;5050946;28;20220;-71
2023/03/02 08:43:56;;;;;;;4.57;1.07;;;24.50;99.90;;;;;;5051191;28;20184;-71
2023/03/02 08:46:24;;;;;;;6.87;1.40;;;24.40;99.90;;;;;;5048750;28;20192;-72
2023/03/02 08:48:52;;;;;;;4.47;1.37;;;24.40;99.90;;;;;;5050149;28;20192;-71
2023/03/02 08:51:25;;;;;;;5.97;1.20;;;24.30;99.90;;;;;;5050442;28;20189;-71
2023/03/02 08:53:55;;;;;;;4.27;1.20;;;24.20;99.90;;;;;;5035431;28;20610;-71
2023/03/02 08:56:26;;;;;;;6.37;1.30;;;24.10;99.90;;;;;;5051189;28;20180;-71
2023/03/02 08:58:55;;;;;;;4.23;1.10;;;24.10;99.90;;;;;;5049115;28;20581;-71
2023/03/02 09:01:28;;;;;;;3.47;1.33;;;24.00;99.90;;;;;;5049728;28;20285;-70
2023/03/02 09:03:59;;;;;;;2.93;1.07;;;23.90;99.90;;;;;;5050430;28;20188;-70
2023/03/02 09:06:28;;;;;;;4.30;1.20;;;23.90;99.90;;;;;;5050349;28;20235;-71
2023/03/02 09:08:56;;;;;;;2.37;1.10;;;23.90;99.90;;;;;;5048329;28;20184;-71
2023/03/02 09:11:25;;;;;;;2.77;1.03;;;23.80;99.90;;;;;;5050283;28;20189;-71
2023/03/02 09:13:57;;;;;;;1.60;1.03;;;23.80;99.90;;;;;;5050747;28;20657;-71
2023/03/02 09:16:25;;;;;;;4.10;1.40;;;23.70;99.90;;;;;;5050149;28;20230;-71
2023/03/02 09:18:53;;;;;;;3.93;1.30;;;23.70;99.90;;;;;;5049191;28;20222;-71
2023/03/02 09:21:22;;;;;;;1.90;1.20;;;23.70;99.90;;;;;;5050278;28;20228;-71
2023/03/02 09:23:56;;;;;;;3.73;1.13;;;23.60;99.90;;;;;;5049325;28;20207;-71
2023/03/02 09:26:25;;;;;;;2.87;1.37;;;23.60;99.90;;;;;;5050890;28;20188;-71
2023/03/02 09:28:54;;;;;;;3.97;1.20;;;23.60;99.90;;;;;;5049270;28;20215;-71
2023/03/02 09:31:22;;;;;;;4.00;1.27;;;23.60;99.90;;;;;;5050163;28;20187;-71
2023/03/02 09:33:50;;;;;;;3.23;1.37;;;23.60;99.90;;;;;;5053902;28;20646;-71
2023/03/02 09:36:24;;;;;;;3.47;1.47;;;23.50;99.90;;;;;;5054462;28;20182;-72
2023/03/02 09:38:55;;;;;;;4.80;1.70;;;23.60;99.90;;;;;;5054103;28;20191;-71
2023/03/02 09:41:23;;;;;;;4.60;1.70;;;23.60;99.90;;;;;;5053794;28;20244;-71
2023/03/02 09:44:14;;;;;;;4.03;1.30;;;23.50;99.90;;;;;;5054219;28;20184;-71
2023/03/02 09:47:00;;;;;;;8.10;1.27;;;23.50;99.90;;;;;;5053861;28;20252;-72
2023/03/02 09:49:48;;;;;;;3.37;1.03;;;23.50;99.90;;;;;;5054091;28;20175;-72
2023/03/02 09:52:31;;;;;;;5.37;1.40;;;23.40;99.90;;;;;;5053112;28;20184;-72
2023/03/02 09:55:19;;;;;;;5.77;1.53;;;23.30;99.90;;;;;;5054100;28;20271;-72
2023/03/02 09:57:47;;;;;;;8.87;1.40;;;23.20;99.90;;;;;;5053820;28;20169;-72
2023/03/02 10:00:28;;;;;;;3.33;1.40;;;23.20;99.90;;;;;;5052127;28;20548;-72
2023/03/02 10:03:20;;;;;;;6.63;1.53;;;23.30;99.90;;;;;;5033913;28;20631;-70
2023/03/02 10:05:55;;;;;;;4.17;1.10;;;23.30;99.90;;;;;;5033348;28;20193;-71
2023/03/02 10:08:33;;;;;;;4.43;1.50;;;23.30;99.90;;;;;;5033916;28;20245;-71
2023/03/02 10:11:19;;;;;;;5.00;1.20;;;23.20;99.90;;;;;;5033706;28;20641;-71
2023/03/02 10:14:05;;;;;;;7.33;1.03;;;23.20;99.90;;;;;;5048747;28;20208;-71
2023/03/02 10:16:38;;;;;;;5.47;2.13;;;23.20;99.90;;;;;;5052893;28;20236;-71
2023/03/02 10:19:23;;;;;;;3.67;1.80;;;23.20;99.90;;;;;;5053969;28;20211;-72
2023/03/02 10:22:02;;;;;;;1.70;1.30;;;23.10;99.90;;;;;;5043464;28;20211;-70
2023/03/02 10:24:37;;;;;;;3.37;1.10;;;23.20;99.90;;;;;;5054360;28;20204;-70
2023/03/02 10:27:20;;;;;;;3.13;1.40;;;23.20;99.90;;;;;;5035174;28;20172;-70
2023/03/02 10:29:58;;;;;;;3.07;1.30;;;23.20;99.90;;;;;;5034642;28;20184;-70
2023/03/02 10:32:45;;;;;;;7.03;1.73;;;23.10;99.90;;;;;;5054437;28;20238;-70
2023/03/02 10:35:22;;;;;;;3.10;1.20;;;23.10;99.90;;;;;;5042026;28;20189;-70
2023/03/02 10:37:59;;;;;;;5.87;1.80;;;23.20;99.90;;;;;;5044602;28;20271;-70
2023/03/02 10:40:41;;;;;;;2.47;1.40;;;23.20;99.90;;;;;;5053765;28;20183;-70
2023/03/02 10:43:29;;;;;;;5.43;1.50;;;23.20;99.90;;;;;;5053440;28;20183;-70
2023/03/02 10:46:00;;;;;;;1.97;1.10;;;23.20;99.90;;;;;;5053678;28;20180;-70
2023/03/02 10:48:28;;;;;;;3.60;1.30;;;23.10;99.90;;;;;;5054217;28;20177;-69
2023/03/02 10:50:57;;;;;;;6.10;1.40;;;23.10;99.90;;;;;;5046937;28;20176;-70
2023/03/02 10:53:25;;;;;;;4.90;1.80;;;23.20;99.90;;;;;;5053937;28;20172;-69
2023/03/02 10:55:53;;;;;;;4.97;1.17;;;23.20;99.90;;;;;;5052111;28;20268;-70
2023/03/02 10:58:33;;;;;;;5.73;1.30;;;23.30;99.90;;;;;;5052811;28;20189;-70
2023/03/02 11:01:04;;;;;;;3.80;1.17;;;23.30;99.90;;;;;;5053653;28;20235;-69
2023/03/02 11:03:33;;;;;;;5.93;1.40;;;23.30;99.90;;;;;;5053157;28;20203;-71
2023/03/02 11:06:18;;;;;;;2.27;1.33;;;23.30;99.90;;;;;;5051048;28;20213;-70
2023/03/02 11:08:46;;;;;;;3.30;1.33;;;23.30;99.90;;;;;;5053695;28;20187;-71
2023/03/02 11:11:24;;;;;;;7.40;1.60;;;23.30;99.90;;;;;;5053769;28;20172;-70
2023/03/02 11:13:51;;;;;;;3.37;1.37;;;23.20;99.90;;;;;;5035497;28;20683;-70
2023/03/02 11:16:19;;;;;;;5.77;1.40;;;23.20;99.90;;;;;;5041259;28;20250;-70
2023/03/02 11:19:07;;;;;;;3.47;1.30;;;23.10;99.90;;;;;;5053904;28;20267;-70
2023/03/02 11:21:55;;;;;;;5.57;1.67;;;23.20;99.90;;;;;;5033908;28;20674;-70
2023/03/02 11:24:47;;;;;;;4.97;2.00;;;23.10;99.90;;;;;;5032841;28;20262;-70
2023/03/02 11:27:26;;;;;;;5.40;1.37;;;23.00;99.90;;;;;;5051636;28;20658;-70
2023/03/02 11:30:11;;;;;;;5.30;1.47;;;23.00;99.90;;;;;;5053263;28;20200;-70
2023/03/02 11:32:51;;;;;;;7.57;1.80;;;22.80;99.90;;;;;;5053542;28;20255;-70
2023/03/02 11:35:42;;;;;;;10.80;1.93;;;22.80;99.90;;;;;;5051915;28;20551;-70
2023/03/02 11:38:29;;;;;;;4.70;1.77;;;22.80;99.90;;;;;;5033230;28;20238;-70
2023/03/02 11:40:59;;;;;;;4.23;2.30;;;22.70;99.90;;;;;;5038437;28;20564;-70
2023/03/02 11:43:27;;;;;;;3.30;1.63;;;22.70;99.90;;;;;;5053068;28;20589;-70
2023/03/02 11:46:01;;;;;;;5.87;1.77;;;22.60;99.90;;;;;;5052061;28;20196;-70
2023/03/02 11:48:35;;;;;;;4.57;1.80;;;22.50;99.90;;;;;;5053124;28;20164;-70
2023/03/02 11:51:11;;;;;;;6.10;2.13;;;22.50;99.90;;;;;;5053143;28;20187;-70
2023/03/02 11:53:48;;;;;;;5.57;1.70;;;22.50;99.90;;;;;;5052870;28;20556;-70
2023/03/02 11:56:16;;;;;;;4.80;1.70;;;22.50;99.90;;;;;;5050808;28;20184;-70
2023/03/02 11:58:45;;;;;;;5.07;1.90;;;22.40;99.90;;;;;;5052844;28;20248;-70
2023/03/02 12:01:19;;;;;;;8.07;1.67;;;22.40;99.90;;;;;;5052810;28;20262;-70
2023/03/02 12:03:46;;;;;;;4.03;1.40;;;22.30;99.90;;;;;;5052617;28;20668;-70
2023/03/02 12:06:26;;;;;;;6.57;1.90;;;22.20;99.90;;;;;;5037489;28;20189;-70
2023/03/02 12:09:07;;;;;;;6.83;2.00;;;22.10;99.90;;;;;;5039822;28;20231;-70
2023/03/02 12:11:40;;;;;;;3.80;1.70;;;22.00;99.90;;;;;;5053029;28;20187;-70
2023/03/02 12:14:26;;;;;;;4.30;1.37;;;22.00;99.90;;;;;;5052466;28;20212;-69
2023/03/02 12:17:26;;;;;;;5.47;1.57;;;21.90;99.90;;;;;;5048727;28;20220;-71
2023/03/02 12:20:15;;;;;;;2.83;1.33;;;21.90;99.90;;;;;;5030606;28;20242;-71
2023/03/02 12:22:42;;;;;;;3.63;1.80;;;21.90;99.90;;;;;;5044857;28;20591;-70
2023/03/02 12:25:18;;;;;;;8.73;2.07;;;21.80;99.90;;;;;;5045948;28;20274;-70
2023/03/02 12:27:51;;;;;;;3.83;1.60;;;21.80;99.90;;;;;;5049925;28;20187;-70
2023/03/02 12:30:25;;;;;;;8.57;2.60;;;21.70;99.90;;;;;;5050762;28;20597;-70
2023/03/02 12:33:21;;;;;;;3.43;1.47;;;21.70;99.90;;;;;;5052570;28;20547;-71
2023/03/02 12:35:55;;;;;;;4.47;2.00;;;21.70;99.90;;;;;;5051722;28;20196;-71
2023/03/02 12:38:30;;;;;;;3.23;1.57;;;21.70;99.90;;;;;;5052929;28;20266;-71
2023/03/02 12:41:07;;;;;;;8.03;1.87;;;21.60;99.90;;;;;;5053104;28;20277;-71
2023/03/02 12:43:47;;;;;;;5.33;1.90;;;21.70;99.90;;;;;;5051179;28;20197;-71
2023/03/02 12:46:35;;;;;;;3.03;1.43;;;21.80;99.90;;;;;;5047402;28;20190;-71
2023/03/02 12:49:20;;;;;;;3.93;1.27;;;21.80;99.90;;;;;;5051216;28;20582;-71
2023/03/02 12:51:55;;;;;;;4.20;1.67;;;21.90;99.90;;;;;;5051086;28;20731;-71
2023/03/02 12:54:25;;;;;;;7.07;1.97;;;21.90;99.90;;;;;;5052785;28;20208;-71
2023/03/02 12:57:16;;;;;;;7.30;1.90;;;21.90;99.90;;;;;;5046837;28;20193;-71
2023/03/02 12:59:50;;;;;;;3.30;1.67;;;22.00;99.90;;;;;;5052242;28;20279;-71
2023/03/02 13:02:22;;;;;;;5.43;1.70;;;22.10;99.90;;;;;;5052870;28;20258;-71
2023/03/02 13:05:13;;;;;;;9.43;1.87;;;22.10;99.90;;;;;;5051783;28;20181;-71
2023/03/02 13:08:02;;;;;;;4.17;1.80;;;22.10;99.90;;;;;;5055726;28;20222;-71
2023/03/02 13:10:52;;;;;;;4.70;1.63;;;22.20;99.90;;;;;;5056577;28;20167;-71
2023/03/02 13:13:23;;;;;;;3.53;1.70;;;22.20;99.90;;;;;;5056469;28;20243;-70
2023/03/02 13:15:52;;;;;;;4.27;1.57;;;22.30;99.90;;;;;;5055052;28;20185;-71
2023/03/02 13:18:23;;;;;;;4.83;1.60;;;22.30;99.90;;;;;;5056312;28;20232;-71
2023/03/02 13:20:51;;;;;;;5.60;1.63;;;22.40;99.90;;;;;;5057021;28;20212;-71